createdAt,value
2023-03-24T00:00:06.066Z,951.2
2023-03-24T00:01:07.899Z,951.2
2023-03-24T00:02:09.879Z,951.2
2023-03-24T00:03:12.520Z,951.2
2023-03-24T00:04:14.709Z,951.2
2023-03-24T00:05:16.720Z,951.2
2023-03-24T00:06:18.623Z,951.2
2023-03-24T00:07:21.455Z,951.2
2023-03-24T00:08:23.320Z,951.2
2023-03-24T00:09:25.153Z,951.2
2023-03-24T00:10:27.100Z,951.2
2023-03-24T00:11:28.899Z,951.2
2023-03-24T00:12:30.704Z,951.2
2023-03-24T00:13:32.655Z,951.2
2023-03-24T00:14:34.400Z,951.2
2023-03-24T00:15:36.405Z,951.2
2023-03-24T00:16:38.429Z,951.2
2023-03-24T00:17:40.485Z,951.2
2023-03-24T00:18:42.311Z,951.2
2023-03-24T00:19:44.157Z,951.2
2023-03-24T00:20:46.819Z,951.2
2023-03-24T00:21:48.978Z,951.2
2023-03-24T00:22:50.849Z,951.1
2023-03-24T00:23:52.905Z,951.2
2023-03-24T00:24:55.165Z,951.2
2023-03-24T00:25:57.009Z,951.2
2023-03-24T00:26:58.849Z,951.2
2023-03-24T00:28:00.604Z,951.3
2023-03-24T00:29:02.547Z,951.2
2023-03-24T00:30:04.394Z,951.3
2023-03-24T00:31:06.308Z,951.3
2023-03-24T00:32:08.220Z,951.3
2023-03-24T00:33:10.275Z,951.3
2023-03-24T00:34:12.196Z,951.3
2023-03-24T00:35:14.064Z,951.3
2023-03-24T00:36:16.075Z,951.3
2023-03-24T00:37:17.964Z,951.3
2023-03-24T00:38:19.729Z,951.3
2023-03-24T00:39:21.851Z,951.3
2023-03-24T00:40:23.811Z,951.3
2023-03-24T00:41:25.603Z,951.3
2023-03-24T00:42:27.437Z,951.3
2023-03-24T00:43:29.270Z,951.3
2023-03-24T00:44:31.229Z,951.2
2023-03-24T00:45:33.076Z,951.3
2023-03-24T00:46:35.208Z,951.3
2023-03-24T00:47:37.522Z,951.2
2023-03-24T00:48:39.278Z,951.3
2023-03-24T00:49:41.251Z,951.2
2023-03-24T00:50:43.581Z,951.2
2023-03-24T00:51:45.708Z,951.2
2023-03-24T00:52:47.575Z,951.2
2023-03-24T00:53:49.427Z,951.2
2023-03-24T00:54:51.381Z,951.2
2023-03-24T00:55:53.319Z,951.1
2023-03-24T00:56:55.392Z,951.1
2023-03-24T00:57:57.441Z,951.1
2023-03-24T00:58:59.284Z,951.1
2023-03-24T01:00:01.142Z,951.2
2023-03-24T01:01:03.192Z,951.1
2023-03-24T01:02:05.430Z,951.1
2023-03-24T01:03:07.531Z,951.1
2023-03-24T01:04:09.561Z,951.1
2023-03-24T01:05:11.406Z,951.1
2023-03-24T01:06:13.359Z,951
2023-03-24T01:07:15.200Z,951.1
2023-03-24T01:08:17.052Z,951
2023-03-24T01:09:18.908Z,951.1
2023-03-24T01:10:20.861Z,951.1
2023-03-24T01:11:22.809Z,951.1
2023-03-24T01:12:24.658Z,951.1
2023-03-24T01:13:26.441Z,951
2023-03-24T01:14:28.369Z,951.1
2023-03-24T01:15:30.294Z,951
2023-03-24T01:16:32.343Z,951
2023-03-24T01:17:34.481Z,951
2023-03-24T01:18:36.378Z,951
2023-03-24T01:19:38.329Z,951
2023-03-24T01:20:40.166Z,951
2023-03-24T01:21:42.038Z,951
2023-03-24T01:22:44.174Z,951
2023-03-24T01:23:45.934Z,951
2023-03-24T01:24:47.785Z,951
2023-03-24T01:25:49.740Z,951
2023-03-24T01:26:51.576Z,951
2023-03-24T01:27:53.426Z,951
2023-03-24T01:28:55.176Z,951
2023-03-24T01:29:57.133Z,951
2023-03-24T01:30:58.983Z,951
2023-03-24T01:32:00.967Z,951
2023-03-24T01:33:03.260Z,951
2023-03-24T01:34:05.425Z,951
2023-03-24T01:35:07.275Z,951
2023-03-24T01:36:09.304Z,951
2023-03-24T01:37:11.221Z,951
2023-03-24T01:38:13.154Z,951
2023-03-24T01:39:15.012Z,951
2023-03-24T01:40:16.855Z,951
2023-03-24T01:41:18.714Z,951
2023-03-24T01:42:20.659Z,951
2023-03-24T01:43:22.505Z,951
2023-03-24T01:44:24.256Z,951
2023-03-24T01:45:26.147Z,951
2023-03-24T01:46:28.275Z,951
2023-03-24T01:47:30.169Z,951
2023-03-24T01:48:32.302Z,951
2023-03-24T01:49:34.125Z,951
2023-03-24T01:50:35.898Z,951
2023-03-24T01:51:37.725Z,950.9
2023-03-24T01:52:39.683Z,951
2023-03-24T01:53:41.519Z,951
2023-03-24T01:54:43.380Z,951
2023-03-24T01:55:45.230Z,951
2023-03-24T01:56:47.822Z,951
2023-03-24T01:57:49.809Z,951
2023-03-24T01:58:51.719Z,951
2023-03-24T01:59:53.560Z,951
2023-03-24T02:00:55.636Z,951
2023-03-24T02:01:57.558Z,951
2023-03-24T02:02:59.532Z,951
2023-03-24T02:04:01.615Z,951
2023-03-24T02:05:03.737Z,951
2023-03-24T02:06:05.580Z,951
2023-03-24T02:07:07.421Z,951.1
2023-03-24T02:08:09.277Z,951.1
2023-03-24T02:09:11.063Z,951.1
2023-03-24T02:10:12.871Z,951.1
2023-03-24T02:11:14.817Z,951.1
2023-03-24T02:12:16.795Z,951.2
2023-03-24T02:13:18.736Z,951.1
2023-03-24T02:14:20.681Z,951.1
2023-03-24T02:15:22.532Z,951.2
2023-03-24T02:16:24.396Z,951.1
2023-03-24T02:17:26.367Z,951.1
2023-03-24T02:18:28.480Z,951.2
2023-03-24T02:19:30.257Z,951.2
2023-03-24T02:20:32.196Z,951.2
2023-03-24T02:21:34.042Z,951.1
2023-03-24T02:22:35.895Z,951.1
2023-03-24T02:23:37.747Z,951.1
2023-03-24T02:24:39.665Z,951.1
2023-03-24T02:25:41.542Z,951.1
2023-03-24T02:26:43.386Z,951.2
2023-03-24T02:27:45.236Z,951.2
2023-03-24T02:28:47.189Z,951.2
2023-03-24T02:29:49.052Z,951.2
2023-03-24T02:30:50.900Z,951.2
2023-03-24T02:31:52.879Z,951.2
2023-03-24T02:32:54.824Z,951.2
2023-03-24T02:33:56.656Z,951.1
2023-03-24T02:34:58.682Z,951.2
2023-03-24T02:36:00.794Z,951.2
2023-03-24T02:37:03.024Z,951.2
2023-03-24T02:38:04.870Z,951.2
2023-03-24T02:39:06.720Z,951.2
2023-03-24T02:40:08.678Z,951.2
2023-03-24T02:41:10.532Z,951.2
2023-03-24T02:42:12.453Z,951.2
2023-03-24T02:43:14.406Z,951.1
2023-03-24T02:44:16.274Z,951.1
2023-03-24T02:45:18.132Z,951
2023-03-24T02:46:20.162Z,951
2023-03-24T02:47:22.352Z,951.1
2023-03-24T02:48:24.212Z,951
2023-03-24T02:49:26.053Z,951.1
2023-03-24T02:50:27.940Z,951.1
2023-03-24T02:51:29.855Z,951
2023-03-24T02:52:31.789Z,950.9
2023-03-24T02:53:33.643Z,950.9
2023-03-24T02:54:35.496Z,950.9
2023-03-24T02:55:37.435Z,950.9
2023-03-24T02:56:39.429Z,950.9
2023-03-24T02:57:41.351Z,950.8
2023-03-24T02:58:43.192Z,950.8
2023-03-24T02:59:44.946Z,950.8
2023-03-24T03:00:47.739Z,950.8
2023-03-24T03:01:50.113Z,950.8
2023-03-24T03:02:52.473Z,950.8
2023-03-24T03:03:54.433Z,950.7
2023-03-24T03:04:56.339Z,950.7
2023-03-24T03:05:58.328Z,950.7
2023-03-24T03:07:00.256Z,950.7
2023-03-24T03:08:02.109Z,950.7
2023-03-24T03:09:04.058Z,950.7
2023-03-24T03:10:05.941Z,950.7
2023-03-24T03:11:07.861Z,950.7
2023-03-24T03:12:09.713Z,950.8
2023-03-24T03:13:11.555Z,950.8
2023-03-24T03:14:13.408Z,950.8
2023-03-24T03:15:15.261Z,950.7
2023-03-24T03:16:17.447Z,950.7
2023-03-24T03:17:19.397Z,950.8
2023-03-24T03:18:21.270Z,950.8
2023-03-24T03:19:23.168Z,950.7
2023-03-24T03:20:25.017Z,950.8
2023-03-24T03:21:26.989Z,950.7
2023-03-24T03:22:28.925Z,950.8
2023-03-24T03:23:30.782Z,950.8
2023-03-24T03:24:32.825Z,950.8
2023-03-24T03:25:34.668Z,950.8
2023-03-24T03:26:36.639Z,950.8
2023-03-24T03:27:38.421Z,950.8
2023-03-24T03:28:40.226Z,950.8
2023-03-24T03:29:42.107Z,950.8
2023-03-24T03:30:44.549Z,950.8
2023-03-24T03:31:46.707Z,950.8
2023-03-24T03:32:48.664Z,950.8
2023-03-24T03:33:50.712Z,950.8
2023-03-24T03:34:52.565Z,950.8
2023-03-24T03:35:54.439Z,950.7
2023-03-24T03:36:56.498Z,950.7
2023-03-24T03:37:58.419Z,950.6
2023-03-24T03:39:00.271Z,950.6
2023-03-24T03:40:02.230Z,950.6
2023-03-24T03:41:04.167Z,950.6
2023-03-24T03:42:06.126Z,950.6
2023-03-24T03:43:07.984Z,950.6
2023-03-24T03:44:09.840Z,950.7
2023-03-24T03:45:11.486Z,950.7
2023-03-24T03:46:13.554Z,950.7
2023-03-24T03:47:15.575Z,950.8
2023-03-24T03:48:17.339Z,950.8
2023-03-24T03:49:19.172Z,950.8
2023-03-24T03:50:21.030Z,950.8
2023-03-24T03:51:22.974Z,950.8
2023-03-24T03:52:24.863Z,950.8
2023-03-24T03:53:26.683Z,950.8
2023-03-24T03:54:28.535Z,950.8
2023-03-24T03:55:30.382Z,950.8
2023-03-24T03:56:32.366Z,950.8
2023-03-24T03:57:34.187Z,950.8
2023-03-24T03:58:36.042Z,950.8
2023-03-24T03:59:37.890Z,950.8
2023-03-24T04:00:39.833Z,950.8
2023-03-24T04:01:41.907Z,950.8
2023-03-24T04:02:44.184Z,950.8
2023-03-24T04:03:46.343Z,950.8
2023-03-24T04:05:06.924Z,950.8
2023-03-24T04:06:08.954Z,950.9
2023-03-24T04:07:10.847Z,950.9
2023-03-24T04:08:12.730Z,950.9
2023-03-24T04:09:14.602Z,950.9
2023-03-24T04:10:16.456Z,951
2023-03-24T04:11:18.296Z,951
2023-03-24T04:12:20.250Z,951
2023-03-24T04:13:22.102Z,951
2023-03-24T04:14:23.851Z,951
2023-03-24T04:15:25.711Z,951
2023-03-24T04:16:27.812Z,951
2023-03-24T04:17:30.037Z,951.1
2023-03-24T04:18:31.872Z,951.1
2023-03-24T04:19:33.727Z,951.1
2023-03-24T04:20:35.561Z,951
2023-03-24T04:21:37.316Z,951.1
2023-03-24T04:22:39.302Z,951
2023-03-24T04:23:41.155Z,951
2023-03-24T04:24:42.969Z,951
2023-03-24T04:25:45.551Z,951
2023-03-24T04:26:47.695Z,951
2023-03-24T04:27:49.642Z,951
2023-03-24T04:28:51.441Z,951.1
2023-03-24T04:29:53.261Z,951
2023-03-24T04:30:55.086Z,951
2023-03-24T04:31:56.946Z,951
2023-03-24T04:32:59.244Z,951
2023-03-24T04:34:01.253Z,951
2023-03-24T04:35:03.115Z,951.1
2023-03-24T04:36:04.974Z,951.1
2023-03-24T04:37:06.910Z,951.1
2023-03-24T04:38:08.860Z,951.1
2023-03-24T04:39:10.761Z,951.1
2023-03-24T04:40:12.669Z,951.1
2023-03-24T04:41:15.950Z,951.1
2023-03-24T04:42:18.016Z,951.1
2023-03-24T04:43:19.856Z,951.1
2023-03-24T04:44:21.710Z,951.2
2023-03-24T04:45:23.653Z,951.2
2023-03-24T04:46:25.617Z,951.2
2023-03-24T04:47:27.792Z,951.1
2023-03-24T04:48:29.764Z,951.2
2023-03-24T04:49:31.567Z,951.2
2023-03-24T04:50:33.344Z,951.2
2023-03-24T04:51:35.146Z,951.2
2023-03-24T04:52:37.121Z,951.2
2023-03-24T04:53:38.964Z,951.2
2023-03-24T04:54:40.938Z,951.2
2023-03-24T04:55:43.580Z,951.3
2023-03-24T04:56:45.872Z,951.3
2023-03-24T04:57:47.804Z,951.3
2023-03-24T04:58:49.645Z,951.3
2023-03-24T04:59:51.710Z,951.3
2023-03-24T05:00:53.814Z,951.3
2023-03-24T05:01:55.820Z,951.3
2023-03-24T05:02:57.783Z,951.3
2023-03-24T05:03:59.890Z,951.3
2023-03-24T05:05:01.973Z,951.3
2023-03-24T05:06:03.934Z,951.3
2023-03-24T05:07:05.673Z,951.2
2023-03-24T05:08:07.431Z,951.3
2023-03-24T05:09:09.383Z,951.3
2023-03-24T05:10:11.270Z,951.3
2023-03-24T05:11:13.053Z,951.3
2023-03-24T05:12:14.981Z,951.3
2023-03-24T05:13:16.786Z,951.4
2023-03-24T05:14:18.632Z,951.4
2023-03-24T05:15:20.585Z,951.4
2023-03-24T05:16:22.656Z,951.4
2023-03-24T05:17:24.493Z,951.4
2023-03-24T05:18:26.417Z,951.4
2023-03-24T05:19:28.286Z,951.4
2023-03-24T05:20:30.137Z,951.4
2023-03-24T05:21:34.156Z,951.4
2023-03-24T05:22:36.012Z,951.4
2023-03-24T05:23:37.938Z,951.5
2023-03-24T05:24:39.899Z,951.4
2023-03-24T05:25:42.449Z,951.4
2023-03-24T05:26:45.042Z,951.4
2023-03-24T05:27:46.982Z,951.4
2023-03-24T05:28:48.832Z,951.4
2023-03-24T05:29:50.785Z,951.4
2023-03-24T05:30:52.755Z,951.4
2023-03-24T05:31:54.784Z,951.5
2023-03-24T05:32:56.785Z,951.5
2023-03-24T05:33:58.791Z,951.4
2023-03-24T05:35:00.653Z,951.5
2023-03-24T05:36:02.631Z,951.4
2023-03-24T05:37:04.668Z,951.4
2023-03-24T05:38:06.809Z,951.5
2023-03-24T05:39:08.862Z,951.5
2023-03-24T05:40:10.726Z,951.5
2023-03-24T05:41:12.586Z,951.5
2023-03-24T05:42:14.420Z,951.5
2023-03-24T05:43:16.269Z,951.5
2023-03-24T05:44:18.122Z,951.5
2023-03-24T05:45:19.988Z,951.5
2023-03-24T05:46:24.568Z,951.5
2023-03-24T05:47:28.391Z,951.4
2023-03-24T05:48:30.320Z,951.4
2023-03-24T05:49:32.223Z,951.4
2023-03-24T05:50:34.034Z,951.4
2023-03-24T05:51:35.879Z,951.4
2023-03-24T05:52:37.838Z,951.5
2023-03-24T05:53:39.716Z,951.4
2023-03-24T05:54:41.523Z,951.4
2023-03-24T05:55:43.878Z,951.4
2023-03-24T05:56:46.210Z,951.4
2023-03-24T05:57:48.212Z,951.4
2023-03-24T05:58:50.054Z,951.4
2023-03-24T05:59:52.016Z,951.4
2023-03-24T06:00:53.965Z,951.4
2023-03-24T06:01:55.940Z,951.5
2023-03-24T06:02:58.037Z,951.5
2023-03-24T06:04:00.468Z,951.5
2023-03-24T06:05:02.493Z,951.5
2023-03-24T06:06:04.446Z,951.5
2023-03-24T06:07:06.282Z,951.5
2023-03-24T06:08:08.214Z,951.5
2023-03-24T06:09:10.097Z,951.5
2023-03-24T06:10:11.862Z,951.5
2023-03-24T06:11:13.692Z,951.6
2023-03-24T06:12:15.667Z,951.6
2023-03-24T06:13:17.497Z,951.6
2023-03-24T06:14:19.447Z,951.6
2023-03-24T06:15:21.394Z,951.6
2023-03-24T06:16:23.378Z,951.6
2023-03-24T06:17:25.562Z,951.6
2023-03-24T06:18:27.364Z,951.5
2023-03-24T06:19:29.103Z,951.6
2023-03-24T06:20:31.068Z,951.6
2023-03-24T06:21:35.677Z,951.5
2023-03-24T06:22:37.621Z,951.5
2023-03-24T06:23:39.486Z,951.6
2023-03-24T06:24:41.324Z,951.5
2023-03-24T06:25:43.887Z,951.5
2023-03-24T06:26:46.418Z,951.5
2023-03-24T06:27:48.475Z,951.5
2023-03-24T06:28:50.484Z,951.6
2023-03-24T06:29:52.431Z,951.5
2023-03-24T06:30:54.255Z,951.5
2023-03-24T06:31:56.126Z,951.5
2023-03-24T06:32:57.990Z,951.5
2023-03-24T06:33:59.934Z,951.5
2023-03-24T06:35:01.877Z,951.5
2023-03-24T06:36:03.855Z,951.6
2023-03-24T06:37:05.686Z,951.6
2023-03-24T06:38:07.467Z,951.6
2023-03-24T06:39:09.291Z,951.6
2023-03-24T06:40:11.130Z,951.6
2023-03-24T06:41:13.073Z,951.6
2023-03-24T06:42:14.933Z,951.6
2023-03-24T06:43:16.737Z,951.7
2023-03-24T06:44:18.636Z,951.7
2023-03-24T06:45:20.486Z,951.7
2023-03-24T06:46:22.445Z,951.7
2023-03-24T06:47:24.262Z,951.7
2023-03-24T06:48:26.249Z,951.7
2023-03-24T06:49:28.090Z,951.7
2023-03-24T06:50:30.055Z,951.7
2023-03-24T06:51:31.903Z,951.6
2023-03-24T06:52:33.779Z,951.7
2023-03-24T06:53:35.709Z,951.6
2023-03-24T06:54:37.542Z,951.6
2023-03-24T06:55:39.411Z,951.6
2023-03-24T06:56:41.536Z,951.6
2023-03-24T06:57:43.553Z,951.6
2023-03-24T06:58:45.448Z,951.6
2023-03-24T06:59:47.414Z,951.6
2023-03-24T07:00:49.276Z,951.6
2023-03-24T07:01:51.335Z,951.7
2023-03-24T07:02:53.445Z,951.7
2023-03-24T07:03:55.645Z,951.6
2023-03-24T07:04:57.493Z,951.7
2023-03-24T07:05:59.225Z,951.7
2023-03-24T07:08:16.593Z,951.7
2023-03-24T07:09:39.552Z,951.7
2023-03-24T07:10:41.466Z,951.7
2023-03-24T07:11:43.703Z,951.7
2023-03-24T07:12:46.020Z,951.7
2023-03-24T07:13:48.199Z,951.7
2023-03-24T07:14:50.419Z,951.8
2023-03-24T07:15:52.711Z,951.8
2023-03-24T07:16:55.181Z,951.8
2023-03-24T07:17:57.443Z,951.8
2023-03-24T07:18:59.640Z,951.8
2023-03-24T07:20:01.710Z,951.8
2023-03-24T07:21:03.760Z,951.8
2023-03-24T07:22:05.851Z,951.8
2023-03-24T07:23:08.010Z,951.8
2023-03-24T07:24:10.465Z,951.8
2023-03-24T07:25:12.761Z,951.8
2023-03-24T07:26:15.092Z,951.8
2023-03-24T07:27:17.215Z,951.8
2023-03-24T07:28:19.444Z,951.8
2023-03-24T07:29:21.753Z,951.8
2023-03-24T07:30:41.193Z,951.8
2023-03-24T07:31:43.752Z,951.8
2023-03-24T07:32:46.019Z,951.8
2023-03-24T07:33:48.091Z,951.7
2023-03-24T07:34:50.265Z,951.8
2023-03-24T07:35:52.409Z,951.7
2023-03-24T07:36:54.649Z,951.7
2023-03-24T07:37:57.947Z,951.7
2023-03-24T07:54:08.223Z,951.7
2023-03-24T07:55:20.528Z,951.6
2023-03-24T07:56:35.724Z,951.7
2023-03-24T07:57:43.717Z,951.6
2023-03-24T07:58:49.636Z,951.6
2023-03-24T08:00:04.974Z,951.6
2023-03-24T08:01:22.198Z,951.6
2023-03-24T08:02:54.857Z,951.6
2023-03-24T08:03:57.499Z,951.6
2023-03-24T08:04:59.968Z,951.6
2023-03-24T08:06:01.794Z,951.6
2023-03-24T08:07:03.658Z,951.5
2023-03-24T08:08:05.791Z,951.5
2023-03-24T08:09:07.748Z,951.5
2023-03-24T08:10:09.824Z,951.5
2023-03-24T08:11:11.653Z,951.5
2023-03-24T08:12:21.186Z,951.5
2023-03-24T08:13:23.154Z,951.4
2023-03-24T08:14:26.730Z,951.4
2023-03-24T08:15:28.491Z,951.4
2023-03-24T08:16:30.648Z,951.4
2023-03-24T08:17:32.823Z,951.4
2023-03-24T08:18:34.741Z,951.5
2023-03-24T08:20:00.333Z,951.4
2023-03-24T08:21:05.694Z,951.4
2023-03-24T08:22:07.546Z,951.4
2023-03-24T08:23:09.472Z,951.4
2023-03-24T08:24:11.323Z,951.4
2023-03-24T08:25:13.489Z,951.4
2023-03-24T08:26:15.381Z,951.3
2023-03-24T08:27:17.142Z,951.4
2023-03-24T08:28:18.965Z,951.4
2023-03-24T08:29:20.788Z,951.4
2023-03-24T08:30:22.629Z,951.3
2023-03-24T08:31:24.845Z,951.4
2023-03-24T08:32:27.084Z,951.4
2023-03-24T08:33:28.915Z,951.3
2023-03-24T08:34:30.752Z,951.3
2023-03-24T08:35:32.580Z,951.3
2023-03-24T08:36:34.545Z,951.3
2023-03-24T08:37:36.319Z,951.3
2023-03-24T08:38:38.152Z,951.3
2023-03-24T08:39:39.994Z,951.3
2023-03-24T08:40:41.983Z,951.2
2023-03-24T08:41:43.904Z,951.3
2023-03-24T08:42:45.866Z,951.2
2023-03-24T08:43:47.714Z,951.2
2023-03-24T08:44:49.670Z,951.2
2023-03-24T08:45:51.778Z,951.2
2023-03-24T08:46:54.023Z,951.2
2023-03-24T08:47:56.074Z,951.1
2023-03-24T08:48:57.896Z,951.1
2023-03-24T08:49:59.736Z,951.1
2023-03-24T08:51:01.603Z,951.1
2023-03-24T08:52:03.531Z,951.1
2023-03-24T08:53:05.382Z,951.1
2023-03-24T08:55:06.879Z,951.1
2023-03-24T08:56:08.748Z,951
2023-03-24T08:57:10.750Z,951
2023-03-24T08:58:12.674Z,950.9
2023-03-24T08:59:14.537Z,950.9
2023-03-24T09:00:16.391Z,951
2023-03-24T09:01:18.480Z,950.9
2023-03-24T09:02:20.487Z,950.9
2023-03-24T09:03:23.188Z,950.9
2023-03-24T09:04:25.128Z,950.9
2023-03-24T09:05:45.241Z,950.8
2023-03-24T09:06:47.138Z,950.8
2023-03-24T09:07:49.106Z,950.8
2023-03-24T09:08:50.951Z,950.8
2023-03-24T09:09:52.797Z,950.8
2023-03-24T09:10:54.748Z,950.8
2023-03-24T09:11:57.044Z,950.8
2023-03-24T09:12:58.865Z,950.8
2023-03-24T09:14:00.643Z,950.8
2023-03-24T09:15:02.474Z,950.8
2023-03-24T09:16:04.660Z,950.8
2023-03-24T09:17:06.573Z,950.8
2023-03-24T09:18:08.524Z,950.8
2023-03-24T09:19:10.366Z,950.7
2023-03-24T09:20:12.327Z,950.7
2023-03-24T09:21:14.174Z,950.7
2023-03-24T09:22:16.030Z,950.7
2023-03-24T09:23:17.989Z,950.7
2023-03-24T09:24:19.733Z,950.6
2023-03-24T09:25:21.576Z,950.6
2023-03-24T09:26:23.415Z,950.6
2023-03-24T09:27:25.503Z,950.6
2023-03-24T09:28:27.440Z,950.6
2023-03-24T09:29:29.390Z,950.6
2023-03-24T09:30:35.481Z,950.6
2023-03-24T09:31:37.411Z,950.6
2023-03-24T09:32:39.598Z,950.6
2023-03-24T09:33:41.601Z,950.6
2023-03-24T09:34:43.444Z,950.6
2023-03-24T09:35:45.465Z,950.6
2023-03-24T09:36:47.359Z,950.6
2023-03-24T09:37:49.206Z,950.6
2023-03-24T09:38:51.169Z,950.5
2023-03-24T09:39:53.009Z,950.5
2023-03-24T09:40:54.948Z,950.5
2023-03-24T09:41:56.735Z,950.5
2023-03-24T09:42:58.600Z,950.5
2023-03-24T09:44:00.499Z,950.5
2023-03-24T09:45:02.459Z,950.5
2023-03-24T09:46:04.317Z,950.5
2023-03-24T09:47:06.280Z,950.4
2023-03-24T09:48:08.468Z,950.4
2023-03-24T09:49:10.587Z,950.4
2023-03-24T09:50:12.533Z,950.4
2023-03-24T09:51:14.390Z,950.4
2023-03-24T09:52:16.228Z,950.4
2023-03-24T09:53:18.088Z,950.4
2023-03-24T09:54:19.926Z,950.4
2023-03-24T09:55:21.715Z,950.4
2023-03-24T09:56:23.556Z,950.4
2023-03-24T09:57:25.389Z,950.3
2023-03-24T09:58:27.533Z,950.3
2023-03-24T09:59:29.908Z,950.3
2023-03-24T10:00:32.342Z,950.3
2023-03-24T10:01:34.456Z,950.2
2023-03-24T10:02:36.565Z,950.3
2023-03-24T10:03:38.896Z,950.2
2023-03-24T10:04:41.131Z,950.2
2023-03-24T10:05:43.091Z,950.2
2023-03-24T10:06:45.138Z,950.2
2023-03-24T10:07:47.266Z,950.1
2023-03-24T10:08:49.122Z,950.2
2023-03-24T10:09:51.179Z,950.2
2023-03-24T10:10:53.049Z,950.1
2023-03-24T10:11:54.891Z,950.1
2023-03-24T10:12:57.001Z,950.1
2023-03-24T10:13:59.022Z,950.1
2023-03-24T10:15:00.944Z,950.1
2023-03-24T10:16:03.010Z,950.1
2023-03-24T10:17:05.059Z,950.1
2023-03-24T10:18:07.063Z,950.1
2023-03-24T10:19:11.849Z,950.1
2023-03-24T10:20:13.681Z,950.1
2023-03-24T10:21:15.628Z,950
2023-03-24T10:22:17.560Z,950
2023-03-24T10:23:19.407Z,950
2023-03-24T10:24:21.261Z,950
2023-03-24T10:25:23.046Z,950
2023-03-24T10:26:24.968Z,950
2023-03-24T10:27:26.819Z,950
2023-03-24T10:28:28.673Z,950
2023-03-24T10:29:30.714Z,950
2023-03-24T10:30:32.674Z,950
2023-03-24T10:31:34.677Z,950
2023-03-24T10:32:36.910Z,950
2023-03-24T10:33:38.647Z,950
2023-03-24T10:34:40.491Z,949.9
2023-03-24T10:35:42.534Z,949.9
2023-03-24T10:36:44.492Z,950
2023-03-24T10:37:46.444Z,949.9
2023-03-24T10:38:48.306Z,950
2023-03-24T10:39:50.236Z,949.9
2023-03-24T10:40:52.096Z,949.9
2023-03-24T10:41:54.049Z,949.9
2023-03-24T10:43:10.132Z,949.9
2023-03-24T10:44:11.879Z,949.9
2023-03-24T10:45:13.874Z,949.9
2023-03-24T10:46:15.986Z,949.9
2023-03-24T10:47:18.162Z,949.9
2023-03-24T10:48:19.998Z,949.9
2023-03-24T10:49:21.854Z,949.8
2023-03-24T10:50:23.600Z,949.9
2023-03-24T10:51:25.652Z,949.8
2023-03-24T10:52:27.503Z,949.8
2023-03-24T10:53:29.458Z,949.8
2023-03-24T10:54:31.300Z,949.8
2023-03-24T10:55:33.147Z,949.8
2023-03-24T10:56:35.282Z,949.8
2023-03-24T10:57:37.163Z,949.8
2023-03-24T10:58:39.122Z,949.8
2023-03-24T10:59:40.961Z,949.8
2023-03-24T11:00:43.266Z,949.8
2023-03-24T11:01:45.501Z,949.8
2023-03-24T11:02:48.010Z,949.7
2023-03-24T11:03:50.104Z,949.7
2023-03-24T11:04:52.155Z,949.7
2023-03-24T11:05:54.005Z,949.7
2023-03-24T11:06:55.812Z,949.7
2023-03-24T11:07:57.596Z,949.7
2023-03-24T11:08:59.660Z,949.7
2023-03-24T11:10:01.537Z,949.6
2023-03-24T11:11:03.566Z,949.6
2023-03-24T11:12:05.401Z,949.6
2023-03-24T11:13:07.003Z,949.7
2023-03-24T11:14:09.020Z,949.6
2023-03-24T11:15:23.444Z,949.6
2023-03-24T11:16:25.745Z,949.6
2023-03-24T11:17:27.907Z,949.6
2023-03-24T11:18:29.630Z,949.6
2023-03-24T11:19:31.497Z,949.5
2023-03-24T11:20:33.853Z,949.5
2023-03-24T11:21:35.683Z,949.5
2023-03-24T11:22:37.498Z,949.5
2023-03-24T11:23:39.484Z,949.5
2023-03-24T11:24:41.376Z,949.5
2023-03-24T11:25:43.134Z,949.4
2023-03-24T11:26:44.872Z,949.4
2023-03-24T11:27:46.795Z,949.4
2023-03-24T11:28:48.758Z,949.4
2023-03-24T11:29:50.582Z,949.3
2023-03-24T11:30:52.608Z,949.3
2023-03-24T11:31:54.782Z,949.3
2023-03-24T11:32:56.670Z,949.3
2023-03-24T11:33:58.596Z,949.3
2023-03-24T11:35:00.450Z,949.3
2023-03-24T11:36:06.841Z,949.3
2023-03-24T11:37:09.077Z,949.3
2023-03-24T11:38:10.922Z,949.3
2023-03-24T11:39:12.862Z,949.3
2023-03-24T11:40:15.031Z,949.3
2023-03-24T11:41:16.976Z,949.3
2023-03-24T11:42:18.820Z,949.2
2023-03-24T11:43:20.797Z,949.2
2023-03-24T11:44:22.834Z,949.3
2023-03-24T11:45:24.786Z,949.2
2023-03-24T11:46:26.973Z,949.2
2023-03-24T11:47:29.261Z,949.2
2023-03-24T11:48:31.383Z,949.1
2023-03-24T11:49:33.255Z,949.2
2023-03-24T11:50:35.182Z,949.2
2023-03-24T11:51:37.011Z,949.2
2023-03-24T11:52:38.868Z,949.1
2023-03-24T11:53:40.713Z,949.1
2023-03-24T11:54:42.568Z,949.1
2023-03-24T11:55:44.523Z,949.1
2023-03-24T11:56:46.616Z,949.1
2023-03-24T11:57:48.414Z,949.1
2023-03-24T11:58:50.270Z,949
2023-03-24T11:59:52.206Z,949
2023-03-24T12:00:54.075Z,949
2023-03-24T12:01:55.925Z,949
2023-03-24T12:02:58.079Z,948.9
2023-03-24T12:04:00.348Z,948.9
2023-03-24T12:05:02.285Z,948.9
2023-03-24T12:06:04.508Z,948.9
2023-03-24T12:07:06.532Z,948.9
2023-03-24T12:08:08.365Z,948.9
2023-03-24T12:09:10.208Z,948.9
2023-03-24T12:10:11.909Z,948.9
2023-03-24T12:11:13.806Z,948.9
2023-03-24T12:12:17.817Z,948.9
2023-03-24T12:13:33.576Z,948.9
2023-03-24T12:14:35.464Z,948.9
2023-03-24T12:15:37.488Z,948.8
2023-03-24T12:16:41.013Z,948.9
2023-03-24T12:17:43.156Z,948.8
2023-03-24T12:18:44.997Z,948.8
2023-03-24T12:19:46.833Z,948.8
2023-03-24T12:20:48.685Z,948.8
2023-03-24T12:21:50.534Z,948.8
2023-03-24T12:22:52.996Z,948.8
2023-03-24T12:23:55.075Z,948.8
2023-03-24T12:24:57.024Z,948.8
2023-03-24T12:25:58.769Z,948.7
2023-03-24T12:27:00.605Z,948.7
2023-03-24T12:28:02.466Z,948.7
2023-03-24T12:29:04.409Z,948.7
2023-03-24T12:30:06.303Z,948.6
2023-03-24T12:31:08.327Z,948.6
2023-03-24T12:32:10.267Z,948.6
2023-03-24T12:33:12.189Z,948.6
2023-03-24T12:34:14.073Z,948.6
2023-03-24T12:35:16.122Z,948.6
2023-03-24T12:36:18.197Z,948.6
2023-03-24T12:37:20.026Z,948.6
2023-03-24T12:38:21.870Z,948.5
2023-03-24T12:39:23.713Z,948.5
2023-03-24T12:40:25.886Z,948.5
2023-03-24T12:41:27.963Z,948.5
2023-03-24T12:42:29.777Z,948.5
2023-03-24T12:43:31.649Z,948.4
2023-03-24T12:44:33.479Z,948.4
2023-03-24T12:45:35.454Z,948.4
2023-03-24T12:46:53.453Z,948.3
2023-03-24T12:47:56.397Z,948.3
2023-03-24T12:48:58.301Z,948.3
2023-03-24T12:50:00.371Z,948.3
2023-03-24T12:51:02.204Z,948.3
2023-03-24T12:52:04.058Z,948.3
2023-03-24T12:53:12.800Z,948.3
2023-03-24T12:54:16.082Z,948.3
2023-03-24T12:55:18.155Z,948.3
2023-03-24T12:56:20.049Z,948.3
2023-03-24T12:57:21.916Z,948.3
2023-03-24T12:58:23.730Z,948.3
2023-03-24T12:59:31.542Z,948.2
2023-03-24T13:00:33.386Z,948.2
2023-03-24T13:01:35.342Z,948.2
2023-03-24T13:02:37.880Z,948.1
2023-03-24T13:03:40.688Z,948.2
2023-03-24T13:04:42.729Z,948.2
2023-03-24T13:05:45.134Z,948.1
2023-03-24T13:06:47.977Z,948.1
2023-03-24T13:07:49.921Z,948.2
2023-03-24T13:08:51.874Z,948.1
2023-03-24T13:09:53.618Z,948.1
2023-03-24T13:10:55.465Z,948.1
2023-03-24T13:11:57.328Z,948.1
2023-03-24T13:12:59.169Z,948.1
2023-03-24T13:14:01.121Z,948.1
2023-03-24T13:15:02.974Z,948.1
2023-03-24T13:16:04.838Z,948.1
2023-03-24T13:17:06.728Z,948.1
2023-03-24T13:18:10.230Z,948.1
2023-03-24T13:19:12.236Z,948.1
2023-03-24T13:20:14.336Z,948.1
2023-03-24T13:21:16.621Z,948.1
2023-03-24T13:22:18.584Z,948.1
2023-03-24T13:23:20.477Z,948
2023-03-24T13:24:22.308Z,948
2023-03-24T13:25:24.367Z,948
2023-03-24T13:26:27.690Z,948
2023-03-24T13:27:31.575Z,948
2023-03-24T13:28:33.894Z,947.9
2023-03-24T13:29:50.117Z,947.9
2023-03-24T13:30:52.229Z,947.9
2023-03-24T13:31:54.319Z,948
2023-03-24T13:32:56.452Z,948
2023-03-24T13:33:58.217Z,947.9
2023-03-24T13:35:00.254Z,947.9
2023-03-24T13:36:02.122Z,948
2023-03-24T13:37:04.077Z,947.9
2023-03-24T13:38:05.902Z,947.9
2023-03-24T13:39:07.944Z,947.9
2023-03-24T13:40:09.912Z,947.9
2023-03-24T13:41:11.755Z,947.9
2023-03-24T13:42:13.599Z,947.9
2023-03-24T13:43:15.556Z,947.8
2023-03-24T13:44:17.449Z,947.8
2023-03-24T13:45:19.372Z,947.8
2023-03-24T13:46:21.271Z,947.8
2023-03-24T13:47:23.360Z,947.8